Ana Sayfa
METAR-TAF:

METAR-TAF

Havaalanları :

Siler City, Kuzey Carolina, Amerika Birleşik Devletleri

Enlem: 35-42-15N, Boylam: 079-30-15W, yükseklik: 187 m

Güncel hava durumu gözlemi

Rapor saat 17:15 UTC de 14 dakika önce yapıldı.
Rüzgar kuzeydan 5 kt
Sıcaklık 7°C
Nem 61%
Basınç 1021 hPa
Görüş mesafesi: 16.1 km
6000 ft yükseklikte çok bulutlu

METAR: KSCR 151715Z AUTO 36005KT 10SM OVC060 07/00 A3016 RMK AO2 T00660004

Saat: 12:29 (17:29 UTC)


TAF: eksik

4.000'den fazla havaalanı için hava durumu gözlemleri ve tahminleri (METAR ve TAF raporları).

Kullanılabilir istasyonlar harita üzerinde sarı ve kırmızı noktalarla gösterilir.

İstasyonun adını görmek için fareyi noktanın üzerinde gezdirin.

Sonrasında hava gözlem ve tahminlerini görmek için tıklayın.

Haritayı değiştirmek için: yaklaştırmak için siyah artı işaretli yeşil düğmeye ve uzaklaştırmak için de eksi işaretli düğmeye hızla tıklayın; bitişik haritalar için yeşil okları kullanın.


METAR-TAF: